Time;durP1;ratioP1;P1;durP2;ratioP2;P2;SDS_P1;SDS_P2;PMS_P1;PMS_P2;Temp;Humidity;BMP_temperature;BMP_pressure;BME280_temperature;BME280_humidity;BME280_pressure;Samples;Min_cycle;Max_cycle;Signal;HPM_P1;HPM_P2
2023/06/12 00:00:52;;;;;;;10.90;6.90;;;;;;;13.41;98.21;100896.84;107093;1245;59075;-67
2023/06/12 00:03:43;;;;;;;8.60;6.60;;;;;;;13.39;98.73;100891.05;106985;1252;62778;-67
2023/06/12 00:06:12;;;;;;;10.20;6.40;;;;;;;13.40;98.64;100885.95;106909;1249;63505;-66
2023/06/12 00:08:42;;;;;;;11.10;6.50;;;;;;;13.43;98.42;100885.52;106790;1248;72828;-68
2023/06/12 00:11:16;;;;;;;9.50;5.20;;;;;;;13.41;98.36;100886.02;106886;1255;70309;-68
2023/06/12 00:13:47;;;;;;;8.70;5.70;;;;;;;13.41;98.46;100885.85;106914;1248;62794;-69
2023/06/12 00:16:16;;;;;;;8.90;6.00;;;;;;;13.37;98.98;100887.19;106975;1246;58983;-69
2023/06/12 00:18:46;;;;;;;15.20;6.20;;;;;;;13.30;99.79;100883.38;107040;1248;59057;-69
2023/06/12 00:21:16;;;;;;;7.30;5.90;;;;;;;13.33;99.63;100885.65;107064;1246;73441;-69
2023/06/12 00:23:46;;;;;;;11.40;6.30;;;;;;;13.32;99.91;100888.70;107135;1256;71490;-68
2023/06/12 00:26:15;;;;;;;11.70;6.70;;;;;;;13.27;99.97;100879.99;107039;1256;69567;-69
2023/06/12 00:28:45;;;;;;;11.30;6.70;;;;;;;13.25;100.00;100879.23;107107;1256;74125;-69
2023/06/12 00:31:14;;;;;;;9.10;5.70;;;;;;;13.24;100.00;100879.86;107093;1247;58920;-68
2023/06/12 00:33:43;;;;;;;7.90;5.50;;;;;;;13.22;100.00;100884.73;106882;1255;59430;-68
2023/06/12 00:36:12;;;;;;;10.90;6.00;;;;;;;13.20;100.00;100886.77;106924;1248;74084;-68
2023/06/12 00:38:41;;;;;;;10.30;6.50;;;;;;;13.18;100.00;100883.62;107089;1245;72149;-66
2023/06/12 00:41:11;;;;;;;12.70;6.70;;;;;;;13.15;100.00;100875.70;106819;1245;70800;-67
2023/06/12 00:43:40;;;;;;;8.70;5.90;;;;;;;13.04;100.00;100871.13;107017;1248;73405;-67
2023/06/12 00:46:10;;;;;;;12.10;6.40;;;;;;;13.04;100.00;100874.96;106842;1247;62446;-67
2023/06/12 00:48:40;;;;;;;9.70;6.30;;;;;;;12.95;100.00;100872.67;106855;1255;58990;-67
2023/06/12 00:51:10;;;;;;;10.70;6.20;;;;;;;13.00;100.00;100866.23;106925;1246;74519;-68
2023/06/12 00:53:39;;;;;;;12.70;6.10;;;;;;;13.00;100.00;100871.48;106895;1256;61619;-68
2023/06/12 00:56:08;;;;;;;10.20;5.60;;;;;;;13.02;100.00;100869.92;106996;1256;59198;-70
2023/06/12 00:58:38;;;;;;;11.60;5.90;;;;;;;13.01;100.00;100870.36;106785;1255;63787;-71
2023/06/12 01:01:08;;;;;;;9.10;5.80;;;;;;;12.95;100.00;100876.40;106819;1255;62924;-69
2023/06/12 01:03:38;;;;;;;7.60;5.00;;;;;;;12.90;100.00;100876.41;106964;1252;61564;-68
2023/06/12 01:06:13;;;;;;;9.90;6.20;;;;;;;12.95;100.00;100875.55;106839;1244;73332;-68
2023/06/12 01:09:06;;;;;;;7.00;5.40;;;;;;;12.89;100.00;100873.58;106823;1256;72026;-68
2023/06/12 01:11:36;;;;;;;9.00;5.70;;;;;;;12.94;100.00;100876.09;106855;1245;71066;-67
2023/06/12 01:14:06;;;;;;;8.40;5.20;;;;;;;12.84;100.00;100875.68;106805;1256;74232;-67
2023/06/12 01:16:34;;;;;;;10.40;5.20;;;;;;;12.91;100.00;100877.79;106817;1248;63683;-68
2023/06/12 01:19:05;;;;;;;6.40;5.20;;;;;;;12.91;100.00;100876.38;106852;1249;61864;-68
2023/06/12 01:21:40;;;;;;;7.50;5.10;;;;;;;12.83;100.00;100877.73;106887;1256;62687;-67
2023/06/12 01:25:05;;;;;;;7.60;5.10;;;;;;;12.82;100.00;100878.48;106760;1256;72241;-67
2023/06/12 01:28:08;;;;;;;9.20;5.30;;;;;;;12.74;100.00;100881.34;106902;1247;70966;-67
2023/06/12 01:31:06;;;;;;;5.70;4.70;;;;;;;12.76;100.00;100884.55;106817;1248;71579;-67
2023/06/12 01:33:41;;;;;;;9.00;4.80;;;;;;;12.71;100.00;100883.86;106900;1249;59117;-68
2023/06/12 01:36:15;;;;;;;7.10;4.60;;;;;;;12.71;100.00;100882.12;106867;1245;59512;-68
2023/06/12 01:38:50;;;;;;;10.10;4.90;;;;;;;12.74;100.00;100878.59;106960;1245;64102;-69
2023/06/12 01:41:23;;;;;;;8.40;4.90;;;;;;;12.65;100.00;100882.80;106874;1255;72224;-66
2023/06/12 01:43:52;;;;;;;6.10;4.10;;;;;;;12.71;100.00;100886.52;106902;1245;71254;-69
2023/06/12 01:46:21;;;;;;;7.70;4.00;;;;;;;12.74;100.00;100885.23;106969;1246;72899;-68
2023/06/12 01:48:50;;;;;;;9.00;4.70;;;;;;;12.74;100.00;100888.50;106822;1255;62909;-67
2023/06/12 01:51:19;;;;;;;5.70;4.10;;;;;;;12.73;100.00;100887.74;106952;1249;61286;-67
2023/06/12 01:53:49;;;;;;;7.70;4.20;;;;;;;12.60;100.00;100889.30;107083;1244;72864;-65
2023/06/12 01:56:24;;;;;;;7.30;3.90;;;;;;;12.63;100.00;100892.17;106942;1248;62150;-66
2023/06/12 01:58:54;;;;;;;7.10;4.20;;;;;;;12.68;100.00;100895.49;107003;1256;70258;-66
2023/06/12 02:01:36;;;;;;;6.70;4.20;;;;;;;12.62;100.00;100898.06;107064;1246;75255;-66
2023/06/12 02:04:06;;;;;;;10.20;4.10;;;;;;;12.64;100.00;100898.77;107109;1249;58988;-66
2023/06/12 02:06:35;;;;;;;8.80;4.00;;;;;;;12.64;100.00;100900.16;107046;1256;57458;-68
2023/06/12 02:09:04;;;;;;;7.50;3.70;;;;;;;12.65;100.00;100899.91;106921;1255;63025;-67
2023/06/12 02:11:34;;;;;;;7.60;4.40;;;;;;;12.69;100.00;100899.91;107101;1250;72269;-66
2023/06/12 02:14:03;;;;;;;7.50;3.50;;;;;;;12.69;100.00;100901.89;107025;1248;59839;-66
2023/06/12 02:16:33;;;;;;;5.30;3.70;;;;;;;12.64;100.00;100899.98;107011;1245;72871;-65
2023/06/12 02:19:02;;;;;;;4.60;3.40;;;;;;;12.66;100.00;100899.48;107031;1243;58939;-66
2023/06/12 02:21:31;;;;;;;4.60;3.40;;;;;;;12.64;100.00;100905.02;106975;1256;58958;-67
2023/06/12 02:24:00;;;;;;;8.30;4.30;;;;;;;12.60;100.00;100901.85;106925;1256;62261;-69
2023/06/12 02:26:30;;;;;;;13.00;3.90;;;;;;;12.52;100.00;100906.91;107007;1245;71832;-69
2023/06/12 02:29:08;;;;;;;7.90;4.00;;;;;;;12.50;100.00;100911.04;107026;1245;60756;-70
2023/06/12 02:31:40;;;;;;;6.60;3.90;;;;;;;12.54;100.00;100910.52;106902;1246;62497;-69
2023/06/12 02:34:10;;;;;;;5.40;3.40;;;;;;;12.56;100.00;100908.47;107062;1247;59047;-69
2023/06/12 02:36:46;;;;;;;5.10;3.40;;;;;;;12.51;100.00;100912.88;107114;1249;59024;-68
2023/06/12 02:39:28;;;;;;;6.00;3.60;;;;;;;12.52;100.00;100916.64;107260;1245;73009;-67
2023/06/12 02:41:59;;;;;;;5.80;3.30;;;;;;;12.51;100.00;100917.77;107165;1246;61382;-71
2023/06/12 02:44:29;;;;;;;3.80;2.60;;;;;;;12.53;100.00;100921.67;106978;1256;69719;-70
2023/06/12 02:47:00;;;;;;;5.50;2.60;;;;;;;12.48;100.00;100917.45;106997;1255;62966;-70
2023/06/12 02:49:35;;;;;;;3.40;2.60;;;;;;;12.44;100.00;100922.27;106904;1255;59005;-69
2023/06/12 02:52:06;;;;;;;3.40;2.30;;;;;;;12.38;100.00;100920.83;107114;1245;60462;-70
2023/06/12 02:54:34;;;;;;;5.70;2.10;;;;;;;12.38;100.00;100923.77;107065;1244;74067;-70
2023/06/12 02:57:05;;;;;;;4.60;2.80;;;;;;;12.28;100.00;100926.85;107168;1247;70965;-69
2023/06/12 02:59:34;;;;;;;6.60;2.50;;;;;;;12.33;100.00;100923.16;107091;1248;69789;-69
2023/06/12 03:02:06;;;;;;;2.80;1.90;;;;;;;12.29;100.00;100913.00;107067;1245;73452;-67
2023/06/12 03:04:47;;;;;;;3.50;2.10;;;;;;;12.38;100.00;100923.65;107058;1254;59129;-69
2023/06/12 03:07:17;;;;;;;3.60;2.40;;;;;;;12.38;100.00;100923.85;107004;1244;61184;-69
2023/06/12 03:09:46;;;;;;;4.50;2.30;;;;;;;12.35;100.00;100927.06;107034;1243;74484;-68
2023/06/12 03:12:15;;;;;;;2.70;2.10;;;;;;;12.34;100.00;100929.73;107111;1245;61532;-68
2023/06/12 03:14:44;;;;;;;3.00;2.10;;;;;;;12.35;100.00;100932.77;107100;1255;70105;-68
2023/06/12 03:17:14;;;;;;;3.60;2.20;;;;;;;12.34;100.00;100933.37;107219;1245;72729;-68
2023/06/12 03:19:44;;;;;;;3.40;2.00;;;;;;;12.38;100.00;100937.27;107247;1247;59165;-69
2023/06/12 03:22:14;;;;;;;3.50;1.80;;;;;;;12.31;100.00;100936.60;107182;1247;60210;-68
2023/06/12 03:24:43;;;;;;;2.70;1.70;;;;;;;12.35;100.00;100940.08;107132;1245;64602;-71
2023/06/12 03:27:13;;;;;;;2.00;1.60;;;;;;;12.28;100.00;100936.85;107248;1245;60943;-68
2023/06/12 03:29:44;;;;;;;3.60;1.60;;;;;;;12.35;100.00;100940.44;107254;1252;69884;-68
2023/06/12 03:32:14;;;;;;;2.10;1.40;;;;;;;12.32;100.00;100940.05;107156;1254;64887;-68
2023/06/12 03:34:52;;;;;;;3.70;2.00;;;;;;;12.31;100.00;100943.39;107220;1245;58959;-64
2023/06/12 03:37:23;;;;;;;2.50;1.50;;;;;;;12.35;100.00;100951.46;107273;1253;58998;-64
2023/06/12 03:39:52;;;;;;;3.20;1.60;;;;;;;12.37;100.00;100953.09;107130;1246;63447;-65
2023/06/12 03:42:22;;;;;;;2.80;1.70;;;;;;;12.37;100.00;100957.78;107068;1248;71433;-65
2023/06/12 03:44:56;;;;;;;3.10;1.60;;;;;;;12.35;100.00;100959.34;107128;1254;60523;-67
2023/06/12 03:47:26;;;;;;;3.00;1.40;;;;;;;12.38;100.00;100960.67;107134;1244;71611;-66
2023/06/12 03:49:55;;;;;;;4.00;1.70;;;;;;;12.30;100.00;100959.75;107152;1248;62660;-66
2023/06/12 03:52:27;;;;;;;3.70;1.70;;;;;;;12.35;100.00;100960.21;107220;1247;59321;-75
2023/06/12 03:54:56;;;;;;;4.10;1.70;;;;;;;12.39;100.00;100962.52;107086;1247;62996;-72
2023/06/12 03:57:25;;;;;;;2.50;1.40;;;;;;;12.39;100.00;100958.86;107035;1245;72976;-72
2023/06/12 03:59:54;;;;;;;2.90;1.80;;;;;;;12.40;100.00;100962.41;106978;1256;70584;-72
2023/06/12 04:02:26;;;;;;;2.60;1.20;;;;;;;12.36;100.00;100956.98;106855;1245;75231;-69
2023/06/12 04:04:55;;;;;;;6.10;1.80;;;;;;;12.39;100.00;100963.41;107017;1248;60219;-69
2023/06/12 04:07:26;;;;;;;2.20;1.20;;;;;;;12.40;100.00;100966.27;107122;1247;59120;-61
2023/06/12 04:09:55;;;;;;;2.80;1.60;;;;;;;12.35;100.00;100972.95;107061;1245;73507;-63
2023/06/12 04:12:24;;;;;;;3.40;1.30;;;;;;;12.37;100.00;100972.34;107128;1243;71070;-63
2023/06/12 04:14:53;;;;;;;2.60;1.50;;;;;;;12.36;100.00;100975.30;107208;1245;60249;-62
2023/06/12 04:17:22;;;;;;;3.50;1.60;;;;;;;12.34;100.00;100977.94;107108;1246;62460;-62
2023/06/12 04:19:52;;;;;;;3.10;1.40;;;;;;;12.35;100.00;100978.36;107298;1245;58934;-63
2023/06/12 04:22:22;;;;;;;3.00;1.50;;;;;;;12.30;100.00;100975.41;107083;1245;58141;-63
2023/06/12 04:24:55;;;;;;;3.80;1.40;;;;;;;12.32;100.00;100976.48;107195;1246;62227;-65
2023/06/12 04:27:25;;;;;;;2.90;1.30;;;;;;;12.36;100.00;100973.23;106732;1244;602193;-66
2023/06/12 04:29:57;;;;;;;2.70;1.30;;;;;;;12.39;100.00;100970.36;107255;1245;59603;-65
2023/06/12 04:32:29;;;;;;;2.90;1.40;;;;;;;12.37;100.00;100973.88;107213;1255;63252;-60
2023/06/12 04:34:58;;;;;;;2.90;1.50;;;;;;;12.37;100.00;100975.45;107032;1253;63501;-61
2023/06/12 04:37:28;;;;;;;3.20;1.20;;;;;;;12.25;100.00;100974.30;107117;1245;61887;-62
2023/06/12 04:39:57;;;;;;;4.20;1.40;;;;;;;12.32;100.00;100976.14;107302;1244;73292;-61
2023/06/12 04:42:28;;;;;;;1.90;1.30;;;;;;;12.31;100.00;100974.02;107246;1255;73115;-62
2023/06/12 04:44:58;;;;;;;6.10;1.50;;;;;;;12.33;100.00;100975.23;107130;1244;70791;-62
2023/06/12 04:47:28;;;;;;;5.50;1.70;;;;;;;12.30;100.00;100972.98;107201;1245;63097;-70
2023/06/12 04:49:57;;;;;;;2.30;1.60;;;;;;;12.36;100.00;100973.41;107146;1252;63051;-67
2023/06/12 04:52:27;;;;;;;5.20;1.80;;;;;;;12.34;100.00;100972.33;107164;1245;57754;-60
2023/06/12 04:54:57;;;;;;;3.70;2.10;;;;;;;12.39;100.00;100972.80;107215;1246;73650;-63
2023/06/12 04:57:27;;;;;;;8.60;2.30;;;;;;;12.40;100.00;100968.90;107270;1251;74159;-64
2023/06/12 04:59:58;;;;;;;4.50;1.90;;;;;;;12.47;100.00;100971.88;107310;1246;71090;-65
2023/06/12 05:02:27;;;;;;;3.10;1.80;;;;;;;12.51;100.00;100969.36;107252;1244;62994;-64
2023/06/12 05:04:57;;;;;;;2.20;1.40;;;;;;;12.56;100.00;100964.95;107357;1244;62208;-63
2023/06/12 05:07:27;;;;;;;3.50;1.30;;;;;;;12.57;100.00;100970.73;107149;1248;61713;-62
2023/06/12 05:10:01;;;;;;;3.50;1.40;;;;;;;12.59;100.00;100970.09;107065;1247;64653;-63
2023/06/12 05:12:31;;;;;;;2.80;1.30;;;;;;;12.63;100.00;100973.66;107134;1254;63102;-64
2023/06/12 05:15:01;;;;;;;4.40;1.40;;;;;;;12.62;100.00;100974.93;107153;1255;69697;-63
2023/06/12 05:17:31;;;;;;;2.60;1.50;;;;;;;12.61;100.00;100976.92;107347;1246;63680;-64
2023/06/12 05:20:04;;;;;;;1.50;1.10;;;;;;;12.57;100.00;100986.31;107236;1244;62158;-64
2023/06/12 05:22:33;;;;;;;2.20;1.30;;;;;;;12.65;100.00;100986.08;107224;1246;58431;-64
2023/06/12 05:25:03;;;;;;;2.50;1.30;;;;;;;12.76;100.00;100988.02;107286;1244;63807;-71
2023/06/12 05:27:34;;;;;;;3.40;1.20;;;;;;;12.84;100.00;100988.40;107188;1242;61195;-64
2023/06/12 05:30:06;;;;;;;2.10;1.20;;;;;;;12.82;100.00;100988.06;107178;1255;59448;-65
2023/06/12 05:32:35;;;;;;;1.80;1.20;;;;;;;12.86;100.00;100992.46;107153;1252;64340;-69
2023/06/12 05:35:05;;;;;;;2.50;1.50;;;;;;;12.89;100.00;100992.37;107149;1252;61400;-63
2023/06/12 05:37:34;;;;;;;1.80;1.10;;;;;;;12.90;100.00;100991.23;107169;1246;59159;-63
2023/06/12 05:40:09;;;;;;;2.20;1.00;;;;;;;12.93;100.00;100993.98;107162;1244;62965;-63
2023/06/12 05:42:39;;;;;;;2.70;1.00;;;;;;;13.01;100.00;100984.80;107029;1244;71383;-65
2023/06/12 05:45:09;;;;;;;2.60;1.30;;;;;;;13.05;100.00;100982.64;107036;1244;70405;-65
2023/06/12 05:47:38;;;;;;;3.20;1.10;;;;;;;12.98;100.00;100986.13;107130;1245;63575;-65
2023/06/12 05:50:09;;;;;;;3.90;1.20;;;;;;;13.03;100.00;100992.00;106978;1248;58341;-66
2023/06/12 05:52:38;;;;;;;4.60;1.20;;;;;;;13.02;100.00;100992.44;106970;1245;59071;-64
2023/06/12 05:55:08;;;;;;;3.10;1.30;;;;;;;12.98;100.00;100987.01;106764;1251;73250;-63
2023/06/12 05:57:38;;;;;;;2.70;1.20;;;;;;;12.97;100.00;100989.12;107036;1244;61450;-65
2023/06/12 06:00:10;;;;;;;3.50;1.20;;;;;;;12.91;100.00;100989.98;107045;1246;61177;-65
2023/06/12 06:02:43;;;;;;;3.20;1.50;;;;;;;12.95;100.00;100989.28;106936;1244;64027;-64
2023/06/12 06:05:23;;;;;;;2.10;0.80;;;;;;;12.99;100.00;100994.96;106960;1245;59028;-64
2023/06/12 06:07:53;;;;;;;5.10;1.60;;;;;;;12.86;100.00;100992.14;106882;1244;61076;-66
2023/06/12 06:10:22;;;;;;;5.20;1.60;;;;;;;12.85;100.00;100991.33;106883;1247;63560;-65
2023/06/12 06:12:52;;;;;;;5.80;1.40;;;;;;;12.80;100.00;100988.03;107010;1246;62933;-64
2023/06/12 06:15:21;;;;;;;3.40;1.20;;;;;;;12.86;100.00;100984.59;107028;1251;60304;-64
2023/06/12 06:17:51;;;;;;;2.80;1.30;;;;;;;12.91;100.00;100983.13;106945;1254;73235;-65
2023/06/12 06:20:20;;;;;;;3.10;1.20;;;;;;;13.02;100.00;100980.75;107109;1252;58292;-65
2023/06/12 06:22:51;;;;;;;2.10;1.20;;;;;;;13.06;100.00;100982.34;107092;1245;61570;-65
2023/06/12 06:25:20;;;;;;;3.50;1.30;;;;;;;13.20;100.00;100978.75;107212;1244;72379;-66
2023/06/12 06:27:49;;;;;;;4.00;1.20;;;;;;;13.26;100.00;100973.60;107090;1255;62505;-65
2023/06/12 06:30:18;;;;;;;4.00;1.40;;;;;;;13.35;99.50;100972.87;107226;1246;70232;-66
2023/06/12 06:32:49;;;;;;;1.80;1.20;;;;;;;13.28;99.26;100981.84;107084;1243;72940;-64
2023/06/12 06:35:19;;;;;;;3.00;1.40;;;;;;;13.19;99.31;100979.72;107264;1245;62273;-69
2023/06/12 06:37:49;;;;;;;3.60;1.50;;;;;;;13.15;99.49;100978.84;107172;1245;62514;-63
2023/06/12 06:40:18;;;;;;;1.90;1.10;;;;;;;13.04;99.84;100976.73;107267;1243;63026;-64
2023/06/12 06:42:47;;;;;;;3.20;1.20;;;;;;;12.94;100.00;100984.88;107186;1246;62503;-64
2023/06/12 06:45:22;;;;;;;3.20;1.40;;;;;;;12.83;100.00;100981.90;107234;1245;70700;-65
2023/06/12 06:47:52;;;;;;;2.50;1.30;;;;;;;12.99;100.00;100982.00;108744;1244;64733;-70
2023/06/12 06:50:22;;;;;;;2.30;1.10;;;;;;;13.03;100.00;100983.46;107069;1248;62613;-66
2023/06/12 06:52:51;;;;;;;4.10;1.20;;;;;;;13.19;99.75;100977.31;107294;1246;59024;-67
2023/06/12 06:55:21;;;;;;;2.80;1.00;;;;;;;13.33;99.13;100980.45;107115;1245;63634;-68
2023/06/12 06:57:50;;;;;;;2.80;1.00;;;;;;;13.43;98.33;100985.17;107227;1244;61148;-64
2023/06/12 07:00:21;;;;;;;2.50;1.00;;;;;;;13.44;98.08;100976.39;107158;1245;70251;-63
2023/06/12 07:02:51;;;;;;;1.60;0.70;;;;;;;13.52;98.19;100980.67;107066;1248;74797;-63
2023/06/12 07:05:22;;;;;;;1.80;1.00;;;;;;;13.61;97.10;100982.04;107157;1248;59070;-66
2023/06/12 07:07:51;;;;;;;2.60;0.70;;;;;;;13.67;96.35;100985.02;107084;1245;59088;-66
2023/06/12 07:10:32;;;;;;;2.20;0.90;;;;;;;13.58;95.86;100982.11;107169;1246;62991;-63
2023/06/12 07:13:01;;;;;;;1.40;0.90;;;;;;;13.61;95.84;100981.64;107257;1244;73227;-63
2023/06/12 07:15:37;;;;;;;3.50;1.30;;;;;;;13.67;95.51;100983.08;107287;1255;70933;-62
2023/06/12 07:18:07;;;;;;;3.10;1.00;;;;;;;13.69;94.95;100990.28;107206;1255;62729;-64
2023/06/12 07:20:36;;;;;;;1.90;0.90;;;;;;;13.65;95.02;100995.21;107170;1245;62779;-62
2023/06/12 07:23:06;;;;;;;3.40;1.20;;;;;;;13.50;95.68;100995.88;107272;1255;57559;-66
2023/06/12 07:25:37;;;;;;;2.10;1.00;;;;;;;13.51;96.12;100995.03;107082;1244;73832;-62
2023/06/12 07:28:07;;;;;;;2.10;0.90;;;;;;;13.49;96.71;100997.33;107133;1254;72575;-63
2023/06/12 07:30:37;;;;;;;4.20;1.00;;;;;;;13.49;96.54;100994.17;107253;1249;59606;-62
2023/06/12 07:33:07;;;;;;;2.20;1.10;;;;;;;13.58;95.99;100999.26;107237;1244;64434;-64
2023/06/12 07:35:37;;;;;;;2.40;1.10;;;;;;;13.56;96.25;100997.80;107261;1245;58993;-63
2023/06/12 07:38:07;;;;;;;2.00;0.80;;;;;;;13.78;95.72;100994.43;107297;1255;60797;-64
2023/06/12 07:40:37;;;;;;;1.40;0.90;;;;;;;13.88;94.36;101004.65;107336;1244;63605;-62
2023/06/12 07:43:07;;;;;;;2.10;0.70;;;;;;;13.85;93.89;101005.09;107099;1248;72288;-62
2023/06/12 07:45:38;;;;;;;1.40;0.90;;;;;;;13.88;94.13;101004.14;107099;1254;70061;-65
2023/06/12 07:48:07;;;;;;;1.80;0.80;;;;;;;13.92;93.23;101007.13;107120;1247;71946;-63
2023/06/12 07:50:41;;;;;;;6.40;1.10;;;;;;;13.95;92.96;101004.27;107288;1245;63354;-65
2023/06/12 07:53:10;;;;;;;2.30;1.00;;;;;;;13.92;92.72;101007.13;107069;1244;58989;-64
2023/06/12 07:55:56;;;;;;;3.10;1.00;;;;;;;13.77;93.94;100997.85;109592;1244;73502;-63
2023/06/12 07:58:27;;;;;;;1.90;0.70;;;;;;;13.94;92.84;100998.60;109365;1242;61783;-71
2023/06/12 08:00:57;;;;;;;1.90;1.10;;;;;;;13.91;92.78;101001.98;109485;1243;69531;-63
2023/06/12 08:03:28;;;;;;;2.10;0.70;;;;;;;13.90;93.10;101002.25;109656;1244;63550;-64
2023/06/12 08:06:00;;;;;;;1.80;1.00;;;;;;;13.87;93.45;101004.63;109551;1244;61879;-62
2023/06/12 08:08:47;;;;;;;3.00;1.40;;;;;;;13.79;94.23;101007.38;109578;1243;57156;-64
2023/06/12 08:11:18;;;;;;;2.50;1.30;;;;;;;13.66;94.79;101005.92;109551;1243;62171;-63
2023/06/12 08:13:52;;;;;;;4.10;1.30;;;;;;;13.65;94.80;101008.65;109558;1245;72218;-63
2023/06/12 08:16:25;;;;;;;2.50;1.20;;;;;;;13.61;95.14;101008.61;109534;1242;59719;-63
2023/06/12 08:18:56;;;;;;;3.00;1.20;;;;;;;13.49;95.74;101006.27;109421;1244;73870;-63
2023/06/12 08:21:30;;;;;;;3.00;1.00;;;;;;;13.51;95.71;101005.77;109500;1245;57714;-63
2023/06/12 08:23:59;;;;;;;4.10;1.30;;;;;;;13.48;95.61;101000.90;109521;1243;57144;-64
2023/06/12 08:26:28;;;;;;;1.60;0.90;;;;;;;13.44;96.48;101002.31;109550;1242;62263;-63
2023/06/12 08:28:57;;;;;;;3.10;1.10;;;;;;;13.51;95.72;101006.46;109485;1243;61694;-63
2023/06/12 08:31:33;;;;;;;1.70;1.10;;;;;;;13.44;95.39;101004.52;109508;1242;68793;-62
2023/06/12 08:34:02;;;;;;;2.70;1.30;;;;;;;13.38;95.50;101006.80;109489;1243;63653;-63
2023/06/12 08:36:31;;;;;;;2.20;1.20;;;;;;;13.42;95.47;101008.93;109419;1244;60922;-64
2023/06/12 08:39:00;;;;;;;3.00;1.00;;;;;;;13.59;94.53;101006.33;109431;1244;60868;-62
2023/06/12 08:41:34;;;;;;;3.00;1.30;;;;;;;13.56;94.75;101003.05;109438;1243;73785;-63
2023/06/12 08:44:03;;;;;;;2.10;1.00;;;;;;;13.61;94.46;101008.83;109250;1242;72764;-63
2023/06/12 08:46:40;;;;;;;2.60;1.10;;;;;;;13.66;94.24;101003.14;109130;1243;61731;-63
2023/06/12 08:49:09;;;;;;;2.70;1.10;;;;;;;13.56;94.82;100999.74;109337;1243;71666;-63
2023/06/12 08:51:39;;;;;;;1.50;1.00;;;;;;;13.67;94.41;100999.90;109304;1244;57137;-63
2023/06/12 08:54:10;;;;;;;2.20;1.10;;;;;;;13.69;93.61;101005.03;109392;1243;61194;-64
2023/06/12 08:56:42;;;;;;;2.90;1.30;;;;;;;13.66;93.65;101003.47;109415;1243;72726;-63
2023/06/12 08:59:11;;;;;;;3.10;1.30;;;;;;;13.56;94.43;101004.45;109338;1243;73216;-63
2023/06/12 09:01:45;;;;;;;3.00;1.40;;;;;;;13.63;94.43;101006.17;109333;1242;69955;-63
2023/06/12 09:04:44;;;;;;;2.50;1.40;;;;;;;13.73;94.12;101009.71;109322;1242;74444;-63
2023/06/12 09:07:17;;;;;;;2.80;1.40;;;;;;;13.79;93.52;101008.02;109425;1243;57404;-62
2023/06/12 09:09:47;;;;;;;1.40;1.10;;;;;;;13.78;93.32;101007.73;109448;1244;61173;-63
2023/06/12 09:12:16;;;;;;;2.30;0.90;;;;;;;13.75;93.40;101009.61;109554;1243;63408;-65
2023/06/12 09:14:48;;;;;;;2.80;1.50;;;;;;;13.74;93.34;101005.63;109488;1245;72166;-63
2023/06/12 09:17:17;;;;;;;1.70;1.10;;;;;;;13.77;93.42;101011.49;109494;1242;60134;-66
2023/06/12 09:19:50;;;;;;;2.70;1.30;;;;;;;13.70;93.32;101014.35;109615;1244;74027;-63
2023/06/12 09:22:21;;;;;;;2.50;1.00;;;;;;;13.69;93.48;101003.95;109615;1244;63785;-66
2023/06/12 09:24:51;;;;;;;1.90;1.20;;;;;;;13.68;93.39;101002.48;109662;1243;58451;-64
2023/06/12 09:27:21;;;;;;;2.50;1.10;;;;;;;13.69;93.02;101001.13;109511;1243;72815;-64
2023/06/12 09:29:58;;;;;;;1.50;0.80;;;;;;;13.67;92.90;101004.30;109417;1243;71997;-64
2023/06/12 09:32:30;;;;;;;3.40;1.20;;;;;;;13.70;92.91;100998.46;109432;1244;70925;-64
2023/06/12 09:35:00;;;;;;;1.90;1.00;;;;;;;13.71;92.95;101000.44;109565;1244;74385;-66
2023/06/12 09:37:30;;;;;;;2.50;1.10;;;;;;;13.63;93.26;101006.33;109243;1246;63381;-67
2023/06/12 09:40:15;;;;;;;1.50;0.90;;;;;;;13.66;93.31;101006.98;109586;1243;57255;-68
2023/06/12 09:42:45;;;;;;;1.70;0.90;;;;;;;13.73;93.68;101013.91;109495;1242;62789;-67
2023/06/12 09:45:23;;;;;;;1.40;0.90;;;;;;;13.89;93.03;101012.30;109341;1243;71226;-67
2023/06/12 09:47:52;;;;;;;1.80;1.10;;;;;;;13.89;92.76;101012.44;109403;1243;60460;-67
2023/06/12 09:50:25;;;;;;;2.40;1.10;;;;;;;13.89;92.87;101015.48;109259;1243;63922;-66
2023/06/12 09:52:58;;;;;;;1.30;0.80;;;;;;;13.91;92.77;101017.23;109451;1243;57662;-69
2023/06/12 09:55:28;;;;;;;1.20;1.00;;;;;;;13.95;92.12;101020.09;109438;1244;57331;-68
2023/06/12 09:57:59;;;;;;;1.80;0.90;;;;;;;13.84;92.59;101025.71;109521;1243;63047;-68
2023/06/12 10:00:29;;;;;;;2.30;0.90;;;;;;;13.92;92.26;101019.93;109504;1244;72085;-68
2023/06/12 10:03:05;;;;;;;1.30;0.90;;;;;;;13.92;92.00;101019.77;109497;1243;59398;-67
2023/06/12 10:05:40;;;;;;;0.80;0.80;;;;;;;14.00;91.22;101027.18;109530;1243;73514;-68
2023/06/12 10:08:10;;;;;;;2.70;0.80;;;;;;;14.01;90.52;101029.55;109416;1243;57760;-68
2023/06/12 10:10:39;;;;;;;2.40;0.80;;;;;;;13.99;90.32;101024.58;109447;1243;59773;-69
2023/06/12 10:13:09;;;;;;;5.00;1.10;;;;;;;13.96;90.36;101025.58;109400;1243;63374;-67
2023/06/12 10:15:39;;;;;;;1.20;0.90;;;;;;;13.77;91.56;101022.38;109359;1243;72177;-68
2023/06/12 10:18:09;;;;;;;1.40;0.90;;;;;;;13.79;91.48;101023.09;109365;1243;60302;-68
2023/06/12 10:20:40;;;;;;;1.50;0.80;;;;;;;13.73;91.64;101028.52;109369;1243;73686;-68
2023/06/12 10:23:10;;;;;;;2.00;0.70;;;;;;;13.82;90.99;101025.27;109396;1244;57734;-68
2023/06/12 10:25:40;;;;;;;1.40;0.70;;;;;;;13.85;90.91;101025.20;109402;1243;58118;-67
2023/06/12 10:28:09;;;;;;;1.30;0.60;;;;;;;13.93;90.62;101023.34;109419;1243;73471;-68
2023/06/12 10:30:38;;;;;;;1.00;0.70;;;;;;;13.86;90.24;101022.86;109527;1242;71139;-68
2023/06/12 10:33:13;;;;;;;1.10;0.80;;;;;;;13.85;90.35;101023.53;109505;1243;71062;-67
2023/06/12 10:35:42;;;;;;;1.20;0.80;;;;;;;13.81;90.36;101025.60;109319;1243;63649;-68
2023/06/12 10:38:12;;;;;;;1.10;0.80;;;;;;;13.78;90.44;101023.02;109092;1243;63471;-67
2023/06/12 10:40:41;;;;;;;2.50;0.70;;;;;;;13.77;90.30;101021.12;109262;1243;61943;-66
2023/06/12 10:43:23;;;;;;;1.00;0.80;;;;;;;13.70;90.36;101013.64;109546;1243;63712;-69
2023/06/12 10:46:00;;;;;;;1.30;0.80;;;;;;;13.69;90.74;101017.23;109362;1243;70332;-68
2023/06/12 10:48:45;;;;;;;1.60;1.20;;;;;;;13.70;91.05;101022.73;109384;1243;59949;-67
2023/06/12 10:51:14;;;;;;;1.40;0.70;;;;;;;13.69;91.38;101017.75;109435;1243;62609;-67
2023/06/12 10:53:44;;;;;;;3.20;0.80;;;;;;;13.53;92.11;101013.78;109527;1243;62900;-67
2023/06/12 10:56:13;;;;;;;1.00;0.80;;;;;;;13.68;91.52;101015.53;109435;1243;61758;-68
2023/06/12 10:58:42;;;;;;;1.30;0.80;;;;;;;13.71;91.57;101017.91;109500;1243;73432;-67
2023/06/12 11:01:14;;;;;;;1.90;0.80;;;;;;;13.61;92.79;101012.46;109425;1242;72648;-67
2023/06/12 11:03:43;;;;;;;1.60;1.30;;;;;;;13.78;92.19;101011.83;109390;1242;59152;-66
2023/06/12 11:06:13;;;;;;;1.10;0.70;;;;;;;13.91;91.49;101007.90;109449;1242;62397;-67
2023/06/12 11:08:45;;;;;;;1.70;0.90;;;;;;;13.93;91.11;101008.59;109415;1245;62972;-67
2023/06/12 11:11:16;;;;;;;1.80;1.00;;;;;;;13.86;91.43;101005.24;109479;1243;61752;-68
2023/06/12 11:13:46;;;;;;;1.60;1.10;;;;;;;13.89;91.31;101013.05;109457;1243;62961;-68
2023/06/12 11:16:17;;;;;;;1.50;0.90;;;;;;;13.80;92.07;101011.47;109444;1245;60973;-66
2023/06/12 11:18:46;;;;;;;1.10;1.00;;;;;;;13.84;91.89;101006.89;109480;1242;59981;-68
2023/06/12 11:21:15;;;;;;;1.40;0.90;;;;;;;13.91;91.67;101006.75;109485;1244;63261;-67
2023/06/12 11:23:44;;;;;;;2.30;0.90;;;;;;;13.90;91.57;101000.29;109429;1242;62545;-66
2023/06/12 11:26:16;;;;;;;4.50;1.00;;;;;;;13.91;91.28;100996.58;109473;1243;61729;-67
2023/06/12 11:28:48;;;;;;;2.60;1.00;;;;;;;13.81;91.73;100998.56;109372;1244;63574;-67
2023/06/12 11:31:18;;;;;;;1.90;0.90;;;;;;;13.74;92.40;101004.04;109537;1242;61660;-67